Have a Safe July 4th! 

Flight Track Log - Related Links

Times and Time Zones

All times are in EDT time to prevent confusion due to time zone crossing. See the ASQ6041 flight status page for this flight to view local times or setup timezone preferences in your user account.

Time Position Orientation Groundspeed Altitude Reporting Facility
EDT Latitude Longitude Course Direction KTS MPH feet Rate Location/Type
Tue 01:28:38 PM 39.8167 -104.8167 251° West 253 291 7,700  Level Denver TRACON
Tue 01:29:32 PM 39.8000 -104.9000 255° West 282 325 9,600 2,147 Climbing Denver TRACON
Tue 01:30:00 PM 39.7575 -104.9752 249° West  Level FlightAware Approximate
Tue 01:30:13 PM 39.7822 -104.9717 252° West 283 326 11,100  Level Denver Center
Tue 01:31:00 PM 39.7245 -105.0768 247° West  Level FlightAware Approximate
Tue 01:31:14 PM 39.7558 -105.0583 248° West 301 346 12,500  Level Denver Center
Tue 01:32:00 PM 39.6907 -105.1779 247° West  Level FlightAware Approximate
Tue 01:32:17 PM 39.7069 -105.1936 245° Southwest 334 384 14,500  Level Denver Center
Tue 01:33:00 PM 39.6483 -105.2729 251° West  Level FlightAware Approximate
Tue 01:33:19 PM 39.6650 -105.3111 245° Southwest 354 407 16,000  Level Denver Center
Tue 01:34:00 PM 39.6207 -105.3770 251° West  Level FlightAware Approximate
Tue 01:34:21 PM 39.6186 -105.4383 245° Southwest 363 418 17,700  Level Denver Center
Tue 01:35:23 PM 39.5758 -105.5556 245° Southwest 361 415 19,700 1,935 Climbing Denver Center
Tue 01:36:25 PM 39.5378 -105.6711 247° West 350 403 21,700 1,548 Climbing Denver Center
Tue 01:37:27 PM 39.5036 -105.7936 250° West 339 390 22,900 1,016 Climbing Denver Center
Tue 01:38:29 PM 39.4753 -105.9008 251° West 337 388 23,800 1,065 Climbing Denver Center
Tue 01:39:31 PM 39.4408 -106.0217 250° West 354 407 25,100 1,317 Climbing Denver Center
Tue 01:40:32 PM 39.4069 -106.1453 250° West 361 415 26,500 1,415 Climbing Denver Center
Tue 01:41:34 PM 39.3211 -106.2539 224° Southwest 368 423 28,000 726 Climbing Denver Center
Tue 01:42:36 PM 39.2369 -106.3319 216° Southwest 381 438 28,000 -145 Level Denver Center
Tue 01:43:38 PM 39.1278 -106.4303 215° Southwest 416 479 27,700 -532 Descending Denver Center
Tue 01:44:40 PM 39.0353 -106.5142 215° Southwest 424 488 26,900 -1,500 Descending Denver Center
Tue 01:45:42 PM 38.9244 -106.5933 209° Southwest 413 475 24,600 -2,323 Descending Denver Center
Tue 01:46:44 PM 38.8269 -106.6206 192° South 410 472 22,100 -2,208 Descending Denver Center
Tue 01:47:47 PM 38.7233 -106.6444 190° South 389 448 20,000 -1,008 Descending Denver Center
Tue 01:48:49 PM 38.6336 -106.6661 191° South 339 390 20,000 -1,694 Level Denver Center
Tue 01:49:51 PM 38.5483 -106.7242 208° Southwest 317 365 16,500 -2,323 Descending Denver Center
Tue 01:50:53 PM 38.5381 -106.8258 263° West 316 364 15,200 -1,258 Descending Denver Center

Login

Don't have an account? Register now (free) for customized features, flight alerts, and more!